PWSweather.com
Personal Weather Stations
Station Observations
OBERT
Bodensee Hinterland, OberteuringenDE

Bodensee HinterlandOberteuringenDE

Lat: 47.714675, Lon: 9.44447

Elevation: 1427

Station Type: Wunder Weather Station

High Low Average
Temperature 48.5°F9.2°C 30.9°F-0.6°C 40.8°F4.9°C
Dew Point 46.9°F8.3°C -0.1°F-17.8°C 37.1°F2.8°C
Winds 6.0 mph 9.7 kmh Calm Calm 1.0 mph SE1.6 kmh SE
Wind Gusts 10.6 mph17.1 kmh -- 2.0 mph3.2 kmh
Humidity 100% -5% 90%
Pressure 29.72 in1006.4 mb 29.60 in1002.4 mb -
Precipitation 0.00 in0.0 mm - -
Hour Temp Dew Point Humidity Winds Wind Gusts Pressure Precip Precip Rate Daily Precip Total
12:04 AM 38.8°F3.8°C 38.8°F3.8°C 100% Calm Calm -- 29.72 in1006.4 mb 0.00 in0.0 mm 0.00 in0.0 mm 0.00 in0.0 mm
12:34 AM 39.0°F3.9°C -0.1°F-17.8°C -5% Calm Calm -- 29.71 in1006.1 mb 0.00 in0.0 mm 0.00 in0.0 mm 0.00 in0.0 mm
01:04 AM 38.8°F3.8°C -0.1°F-17.8°C -5% Calm Calm -- 29.70 in1005.8 mb 0.00 in0.0 mm 0.00 in0.0 mm 0.00 in0.0 mm
01:34 AM 37.7°F3.2°C 37.7°F3.2°C 100% Calm Calm -- 29.69 in1005.4 mb 0.00 in0.0 mm 0.00 in0.0 mm 0.00 in0.0 mm
02:04 AM 36.3°F2.4°C 36.3°F2.4°C 100% Calm Calm -- 29.68 in1005.1 mb 0.00 in0.0 mm 0.00 in0.0 mm 0.00 in0.0 mm
02:34 AM 34.8°F1.6°C 34.8°F1.6°C 100% Calm Calm -- 29.68 in1005.1 mb 0.00 in0.0 mm 0.00 in0.0 mm 0.00 in0.0 mm
03:04 AM 33.9°F1.1°C 33.9°F1.1°C 100% 0.7 mph S1.1 kmh S 2.5 mph4.0 kmh 29.66 in1004.4 mb 0.00 in0.0 mm 0.00 in0.0 mm 0.00 in0.0 mm
03:34 AM 33.2°F0.7°C 33.2°F0.7°C 100% Calm Calm -- 29.65 in1004.1 mb 0.00 in0.0 mm 0.00 in0.0 mm 0.00 in0.0 mm
03:46 AM 33.0°F0.6°C 33.0°F0.6°C 100% Calm Calm -- 29.65 in1004.1 mb 0.00 in0.0 mm 0.00 in0.0 mm 0.00 in0.0 mm
04:16 AM 32.1°F0.1°C 32.1°F0.1°C 100% Calm Calm -- 29.65 in1004.1 mb 0.00 in0.0 mm 0.00 in0.0 mm 0.00 in0.0 mm
04:46 AM 32.3°F0.2°C 32.3°F0.2°C 100% Calm Calm -- 29.65 in1004.1 mb 0.00 in0.0 mm 0.00 in0.0 mm 0.00 in0.0 mm
05:16 AM 32.1°F0.1°C 32.1°F0.1°C 100% Calm Calm -- 29.64 in1003.7 mb 0.00 in0.0 mm 0.00 in0.0 mm 0.00 in0.0 mm
05:46 AM 32.7°F0.4°C 32.7°F0.4°C 100% Calm Calm -- 29.63 in1003.4 mb 0.00 in0.0 mm 0.00 in0.0 mm 0.00 in0.0 mm
06:16 AM 31.6°F-0.2°C 31.6°F-0.2°C 100% Calm Calm -- 29.63 in1003.4 mb 0.00 in0.0 mm 0.00 in0.0 mm 0.00 in0.0 mm
06:46 AM 30.9°F-0.6°C 30.9°F-0.6°C 100% Calm Calm -- 29.63 in1003.4 mb 0.00 in0.0 mm 0.00 in0.0 mm 0.00 in0.0 mm
07:16 AM 30.9°F-0.6°C 30.9°F-0.6°C 100% Calm Calm -- 29.63 in1003.4 mb 0.00 in0.0 mm 0.00 in0.0 mm 0.00 in0.0 mm
07:46 AM 31.4°F-0.3°C 31.4°F-0.3°C 100% Calm Calm -- 29.63 in1003.4 mb 0.00 in0.0 mm 0.00 in0.0 mm 0.00 in0.0 mm
08:16 AM 34.7°F1.5°C 34.7°F1.5°C 100% Calm Calm 1.8 mph2.9 kmh 29.63 in1003.4 mb 0.00 in0.0 mm 0.00 in0.0 mm 0.00 in0.0 mm
08:46 AM 41.9°F5.5°C -0.1°F-17.8°C -3% 1.1 mph S1.8 kmh S -- 29.62 in1003.0 mb 0.00 in0.0 mm 0.00 in0.0 mm 0.00 in0.0 mm
09:16 AM 43.5°F6.4°C -0.1°F-17.8°C -5% 3.3 mph SE5.3 kmh SE 5.6 mph9.0 kmh 29.62 in1003.0 mb 0.00 in0.0 mm 0.00 in0.0 mm 0.00 in0.0 mm
09:46 AM 44.9°F7.2°C 44.9°F7.2°C 100% 3.0 mph S4.8 kmh S 4.3 mph6.9 kmh 29.61 in1002.7 mb 0.00 in0.0 mm 0.00 in0.0 mm 0.00 in0.0 mm
10:16 AM 46.0°F7.8°C 46.0°F7.8°C 100% 3.8 mph S6.1 kmh S 5.3 mph8.5 kmh 29.60 in1002.4 mb 0.00 in0.0 mm 0.00 in0.0 mm 0.00 in0.0 mm
10:46 AM 48.5°F9.2°C 46.0°F7.8°C 90% Calm Calm 4.6 mph7.4 kmh 29.61 in1002.7 mb 0.00 in0.0 mm 0.00 in0.0 mm 0.00 in0.0 mm
11:16 AM 47.8°F8.8°C 43.4°F6.3°C 84% 5.3 mph 8.5 kmh 7.8 mph12.6 kmh 29.63 in1003.4 mb 0.00 in0.0 mm 0.00 in0.0 mm 0.00 in0.0 mm
11:46 AM 47.6°F8.7°C 45.3°F7.4°C 91% 4.4 mph N7.1 kmh N 9.0 mph14.5 kmh 29.64 in1003.7 mb 0.00 in0.0 mm 0.00 in0.0 mm 0.00 in0.0 mm
12:16 PM 47.1°F8.4°C 46.4°F8.0°C 97% 6.0 mph N9.7 kmh N 10.6 mph17.1 kmh 29.64 in1003.7 mb 0.00 in0.0 mm 0.00 in0.0 mm 0.00 in0.0 mm
12:46 PM 47.4°F8.6°C 46.9°F8.3°C 97% 1.1 mph 1.8 kmh 6.2 mph10.0 kmh 29.65 in1004.1 mb 0.00 in0.0 mm 0.00 in0.0 mm 0.00 in0.0 mm
01:16 PM 46.9°F8.3°C 45.9°F7.7°C 96% Calm Calm 9.0 mph14.5 kmh 29.65 in1004.1 mb 0.00 in0.0 mm 0.00 in0.0 mm 0.00 in0.0 mm
01:46 PM 47.3°F8.5°C 45.5°F7.5°C 93% Calm Calm -- 29.65 in1004.1 mb 0.00 in0.0 mm 0.00 in0.0 mm 0.00 in0.0 mm
02:16 PM 46.7°F8.2°C 46.0°F7.8°C 97% Calm Calm -- 29.65 in1004.1 mb 0.00 in0.0 mm 0.00 in0.0 mm 0.00 in0.0 mm
02:46 PM 46.2°F7.9°C 44.8°F7.1°C 95% 3.8 mph N6.1 kmh N 8.7 mph14.0 kmh 29.66 in1004.4 mb 0.00 in0.0 mm 0.00 in0.0 mm 0.00 in0.0 mm
03:16 PM 46.9°F8.3°C 45.5°F7.5°C 95% Calm Calm -- 29.65 in1004.1 mb 0.00 in0.0 mm 0.00 in0.0 mm 0.00 in0.0 mm
03:46 PM 46.4°F8.0°C 44.8°F7.1°C 94% Calm Calm -- 29.66 in1004.4 mb 0.00 in0.0 mm 0.00 in0.0 mm 0.00 in0.0 mm
04:16 PM 46.9°F8.3°C 44.9°F7.2°C 92% Calm Calm -- 29.66 in1004.4 mb 0.00 in0.0 mm 0.00 in0.0 mm 0.00 in0.0 mm
04:46 PM 45.1°F7.3°C 44.6°F7.0°C 98% Calm Calm -- 29.66 in1004.4 mb 0.00 in0.0 mm 0.00 in0.0 mm 0.00 in0.0 mm
05:16 PM 44.0°F6.7°C 44.0°F6.7°C 100% Calm Calm -- 29.67 in1004.7 mb 0.00 in0.0 mm 0.00 in0.0 mm 0.00 in0.0 mm
05:46 PM 42.9°F6.1°C 42.9°F6.1°C 100% Calm Calm -- 29.68 in1005.1 mb 0.00 in0.0 mm 0.00 in0.0 mm 0.00 in0.0 mm
06:16 PM 42.4°F5.8°C 42.4°F5.8°C 100% Calm Calm -- 29.69 in1005.4 mb 0.00 in0.0 mm 0.00 in0.0 mm 0.00 in0.0 mm
06:46 PM 41.9°F5.5°C 41.9°F5.5°C 100% Calm Calm -- 29.68 in1005.1 mb 0.00 in0.0 mm 0.00 in0.0 mm 0.00 in0.0 mm
07:16 PM 41.7°F5.4°C 41.7°F5.4°C 100% Calm Calm -- 29.68 in1005.1 mb 0.00 in0.0 mm 0.00 in0.0 mm 0.00 in0.0 mm
07:46 PM 41.9°F5.5°C 41.9°F5.5°C 100% Calm Calm -- 29.69 in1005.4 mb 0.00 in0.0 mm 0.00 in0.0 mm 0.00 in0.0 mm
08:16 PM 41.9°F5.5°C 41.9°F5.5°C 100% Calm Calm -- 29.68 in1005.1 mb 0.00 in0.0 mm 0.00 in0.0 mm 0.00 in0.0 mm
08:46 PM 42.4°F5.8°C 42.4°F5.8°C 100% Calm Calm -- 29.68 in1005.1 mb 0.00 in0.0 mm 0.00 in0.0 mm 0.00 in0.0 mm
09:16 PM 42.4°F5.8°C 42.4°F5.8°C 100% Calm Calm -- 29.69 in1005.4 mb 0.00 in0.0 mm 0.00 in0.0 mm 0.00 in0.0 mm
09:46 PM 42.6°F5.9°C 42.6°F5.9°C 100% Calm Calm -- 29.70 in1005.8 mb 0.00 in0.0 mm 0.00 in0.0 mm 0.00 in0.0 mm
09:58 PM 42.6°F5.9°C 42.6°F5.9°C 100% Calm Calm -- 29.71 in1006.1 mb 0.00 in0.0 mm 0.00 in0.0 mm 0.00 in0.0 mm
10:28 PM 42.8°F6.0°C 42.8°F6.0°C 100% 0.9 mph E1.4 kmh E 2.5 mph4.0 kmh 29.71 in1006.1 mb 0.00 in0.0 mm 0.00 in0.0 mm 0.00 in0.0 mm
10:58 PM 42.6°F5.9°C 42.6°F5.9°C 100% Calm Calm -- 29.71 in1006.1 mb 0.00 in0.0 mm 0.00 in0.0 mm 0.00 in0.0 mm
11:28 PM 42.0°F5.6°C 42.0°F5.6°C 100% Calm Calm -- 29.71 in1006.1 mb 0.00 in0.0 mm 0.00 in0.0 mm 0.00 in0.0 mm
11:58 PM 42.2°F5.7°C 42.2°F5.7°C 100% Calm Calm 0.9 mph1.4 kmh 29.71 in1006.1 mb 0.00 in0.0 mm 0.00 in0.0 mm 0.00 in0.0 mm